Time;durP1;ratioP1;P1;durP2;ratioP2;P2;SDS_P1;SDS_P2;PMS_P1;PMS_P2;Temp;Humidity;BMP_temperature;BMP_pressure;BME280_temperature;BME280_humidity;BME280_pressure;Samples;Min_cycle;Max_cycle;Signal;HPM_P1;HPM_P2
2022/05/28 00:01:28;;;;;;;1.95;1.27;;;23.30;52.60;;;;;;5092607;28;20465;-66
2022/05/28 00:03:57;;;;;;;1.50;1.35;;;23.30;52.60;;;;;;5091893;28;20424;-65
2022/05/28 00:06:24;;;;;;;1.90;1.33;;;23.30;52.60;;;;;;5092401;28;20885;-65
2022/05/28 00:08:50;;;;;;;1.45;1.20;;;23.30;52.60;;;;;;5091210;28;20394;-66
2022/05/28 00:11:20;;;;;;;2.30;1.35;;;23.30;52.50;;;;;;5092308;28;20379;-66
2022/05/28 00:13:47;;;;;;;1.58;1.35;;;23.30;52.50;;;;;;5090863;28;20394;-65
2022/05/28 00:16:13;;;;;;;2.15;1.52;;;23.30;52.50;;;;;;5092060;28;20382;-66
2022/05/28 00:18:40;;;;;;;1.77;1.40;;;23.30;52.60;;;;;;5092249;28;20382;-65
2022/05/28 00:21:07;;;;;;;1.83;1.20;;;23.30;52.40;;;;;;5092017;28;20390;-65
2022/05/28 00:23:33;;;;;;;2.33;1.23;;;23.30;52.50;;;;;;5092156;28;20418;-65
2022/05/28 00:26:00;;;;;;;1.42;1.27;;;23.30;52.50;;;;;;5091600;28;20416;-65
2022/05/28 00:28:25;;;;;;;1.80;1.23;;;23.30;52.50;;;;;;5092150;28;20416;-65
2022/05/28 00:30:51;;;;;;;1.55;1.20;;;23.20;52.30;;;;;;5092007;28;20901;-65
2022/05/28 00:33:17;;;;;;;1.58;1.30;;;23.30;52.40;;;;;;5092025;28;20439;-65
2022/05/28 00:35:42;;;;;;;2.80;1.40;;;23.20;52.40;;;;;;5091979;28;20816;-65
2022/05/28 00:38:08;;;;;;;2.17;1.40;;;23.30;52.50;;;;;;5091694;28;20873;-66
2022/05/28 00:40:34;;;;;;;2.80;1.43;;;23.20;52.40;;;;;;5091356;28;20382;-65
2022/05/28 00:43:02;;;;;;;2.33;1.20;;;23.20;52.30;;;;;;5091750;28;20423;-66
2022/05/28 00:45:32;;;;;;;1.90;1.20;;;23.20;52.20;;;;;;5091861;28;20410;-66
2022/05/28 00:48:02;;;;;;;2.15;1.20;;;23.20;52.20;;;;;;5091359;28;20387;-65
2022/05/28 00:50:29;;;;;;;1.55;1.35;;;23.20;52.30;;;;;;5090708;28;20414;-66
2022/05/28 00:52:55;;;;;;;2.03;1.20;;;23.20;52.20;;;;;;5091421;28;20413;-66
2022/05/28 00:55:21;;;;;;;1.38;1.10;;;23.20;52.20;;;;;;5091728;28;20378;-66
2022/05/28 00:57:47;;;;;;;1.48;1.20;;;23.20;52.20;;;;;;5091343;28;20743;-65
2022/05/28 01:00:20;;;;;;;1.58;1.20;;;23.20;52.10;;;;;;5091387;28;20386;-66
2022/05/28 01:03:00;;;;;;;1.90;1.27;;;23.20;52.20;;;;;;5091578;28;20735;-66
2022/05/28 01:05:33;;;;;;;2.60;1.23;;;23.20;52.10;;;;;;5091657;28;20393;-67
2022/05/28 01:08:23;;;;;;;1.80;1.30;;;23.20;52.10;;;;;;5091143;28;20406;-65
2022/05/28 01:11:12;;;;;;;1.35;1.23;;;23.20;52.10;;;;;;5091524;28;20386;-65
2022/05/28 01:14:07;;;;;;;1.60;1.20;;;23.20;52.10;;;;;;5091517;28;20382;-66
2022/05/28 01:16:41;;;;;;;1.60;1.10;;;23.10;52.00;;;;;;5091515;28;20378;-66
2022/05/28 01:19:12;;;;;;;2.13;1.30;;;23.20;52.00;;;;;;5091408;28;20869;-66
2022/05/28 01:21:57;;;;;;;1.50;1.40;;;23.10;52.00;;;;;;5091434;28;20387;-66
2022/05/28 01:24:25;;;;;;;1.73;1.35;;;23.20;52.00;;;;;;5091383;28;20398;-65
2022/05/28 01:26:56;;;;;;;2.10;1.50;;;23.20;52.00;;;;;;5091397;28;20389;-66
2022/05/28 01:29:24;;;;;;;1.63;1.40;;;23.20;52.00;;;;;;5091454;28;20391;-66
2022/05/28 01:31:51;;;;;;;2.13;1.35;;;23.20;52.00;;;;;;5091113;28;20435;-65
2022/05/28 01:34:19;;;;;;;1.48;1.33;;;23.20;51.90;;;;;;5090999;28;20862;-65
2022/05/28 01:36:48;;;;;;;1.63;1.20;;;23.10;51.90;;;;;;5091307;28;20867;-65
2022/05/28 01:39:15;;;;;;;1.52;1.40;;;23.10;51.80;;;;;;5091264;28;20448;-65
2022/05/28 01:41:41;;;;;;;1.30;1.20;;;23.20;51.80;;;;;;5091418;28;20795;-65
2022/05/28 01:44:10;;;;;;;1.60;1.30;;;23.10;51.80;;;;;;5090741;28;20406;-65
2022/05/28 01:46:37;;;;;;;1.80;1.48;;;23.10;51.80;;;;;;5091156;28;20378;-65
2022/05/28 01:49:04;;;;;;;1.90;1.33;;;23.10;51.80;;;;;;5091178;28;20893;-66
2022/05/28 01:51:36;;;;;;;1.45;1.33;;;23.10;51.80;;;;;;5091053;28;20393;-65
2022/05/28 01:54:12;;;;;;;1.73;1.23;;;23.10;51.90;;;;;;5093006;28;20458;-65
2022/05/28 01:56:44;;;;;;;2.03;1.40;;;23.10;51.90;;;;;;5094976;28;20374;-66
2022/05/28 01:59:15;;;;;;;1.70;1.40;;;23.10;51.80;;;;;;5094918;28;20390;-66
2022/05/28 02:01:42;;;;;;;1.63;1.38;;;23.10;52.40;;;;;;5094911;28;20378;-66
2022/05/28 02:04:09;;;;;;;2.10;1.38;;;23.10;51.90;;;;;;5094428;28;20970;-66
2022/05/28 02:06:36;;;;;;;1.40;1.27;;;23.10;51.90;;;;;;5094749;28;20382;-65
2022/05/28 02:09:10;;;;;;;1.50;1.30;;;23.10;51.90;;;;;;5094712;28;20493;-65
2022/05/28 02:12:06;;;;;;;1.55;1.20;;;23.10;51.90;;;;;;5094757;28;20374;-65
2022/05/28 02:15:14;;;;;;;2.10;1.10;;;23.10;51.90;;;;;;5093775;28;20386;-65
2022/05/28 02:17:55;;;;;;;1.93;1.40;;;23.10;51.90;;;;;;5093296;28;20450;-65
2022/05/28 02:20:36;;;;;;;1.80;1.30;;;23.10;51.80;;;;;;5094345;28;20480;-66
2022/05/28 02:23:16;;;;;;;1.67;1.50;;;23.00;51.60;;;;;;5094366;28;20410;-66
2022/05/28 02:25:56;;;;;;;1.77;1.38;;;23.10;51.70;;;;;;5094445;28;20382;-65
2022/05/28 02:28:23;;;;;;;1.60;1.48;;;23.00;51.50;;;;;;5094042;28;20401;-65
2022/05/28 02:31:01;;;;;;;1.42;1.33;;;23.10;51.60;;;;;;5094271;28;20431;-65
2022/05/28 02:33:28;;;;;;;1.80;1.50;;;23.00;51.60;;;;;;5094237;28;20878;-66
2022/05/28 02:35:54;;;;;;;2.55;1.40;;;23.00;51.60;;;;;;5093988;28;20481;-65
2022/05/28 02:38:20;;;;;;;1.88;1.30;;;23.00;51.60;;;;;;5092613;28;20477;-66
2022/05/28 02:40:46;;;;;;;2.90;1.50;;;23.00;51.50;;;;;;5094150;28;20378;-66
2022/05/28 02:43:12;;;;;;;1.73;1.53;;;23.00;51.40;;;;;;5093925;28;20463;-65
2022/05/28 02:45:39;;;;;;;1.63;1.40;;;23.00;51.40;;;;;;5094086;28;20375;-66
2022/05/28 02:48:05;;;;;;;1.60;1.40;;;23.00;51.30;;;;;;5093409;28;20444;-65
2022/05/28 02:50:31;;;;;;;1.60;1.40;;;23.00;51.30;;;;;;5093916;28;20902;-66
2022/05/28 02:52:57;;;;;;;1.67;1.33;;;23.00;51.30;;;;;;5093653;28;20442;-66
2022/05/28 02:55:24;;;;;;;2.45;1.40;;;23.00;51.30;;;;;;5093074;28;20812;-66
2022/05/28 02:57:50;;;;;;;2.13;1.37;;;23.00;51.30;;;;;;5093694;28;20378;-66
2022/05/28 03:00:16;;;;;;;1.90;1.35;;;23.00;51.30;;;;;;5093514;28;20382;-66
2022/05/28 03:02:43;;;;;;;2.08;1.48;;;23.00;51.20;;;;;;5093641;28;20409;-66
2022/05/28 03:05:11;;;;;;;2.63;1.50;;;23.00;51.30;;;;;;5093119;28;20431;-65
2022/05/28 03:07:37;;;;;;;1.73;1.50;;;23.00;51.20;;;;;;5093669;28;20465;-65
2022/05/28 03:10:03;;;;;;;1.65;1.55;;;23.00;51.30;;;;;;5091790;28;20493;-65
2022/05/28 03:12:28;;;;;;;1.97;1.37;;;23.00;51.40;;;;;;5093489;28;20390;-65
2022/05/28 03:14:54;;;;;;;1.75;1.45;;;23.00;51.40;;;;;;5093419;28;20404;-65
2022/05/28 03:17:21;;;;;;;1.83;1.67;;;23.00;51.40;;;;;;5093403;28;20408;-66
2022/05/28 03:19:46;;;;;;;1.80;1.48;;;23.00;51.50;;;;;;5093321;28;20382;-65
2022/05/28 03:22:12;;;;;;;1.70;1.40;;;23.00;51.50;;;;;;5093001;28;20408;-65
2022/05/28 03:24:38;;;;;;;1.90;1.50;;;23.00;51.50;;;;;;5093284;28;20390;-66
2022/05/28 03:27:04;;;;;;;1.60;1.38;;;22.90;51.40;;;;;;5093112;28;20389;-65
2022/05/28 03:29:29;;;;;;;2.00;1.60;;;22.90;51.40;;;;;;5093263;28;20373;-65
2022/05/28 03:31:55;;;;;;;1.83;1.70;;;22.90;51.40;;;;;;5092731;28;20378;-65
2022/05/28 03:34:21;;;;;;;1.95;1.60;;;22.90;51.50;;;;;;5092856;28;20393;-65
2022/05/28 03:36:46;;;;;;;1.80;1.55;;;22.90;51.40;;;;;;5092946;28;20405;-66
2022/05/28 03:39:12;;;;;;;2.15;1.50;;;22.90;51.40;;;;;;5092979;28;20390;-65
2022/05/28 03:41:38;;;;;;;1.77;1.60;;;22.90;51.40;;;;;;5092986;28;20481;-66
2022/05/28 03:44:04;;;;;;;2.13;1.43;;;22.90;51.40;;;;;;5092314;28;20765;-65
2022/05/28 03:46:32;;;;;;;1.92;1.40;;;22.90;51.40;;;;;;5092894;28;20945;-65
2022/05/28 03:49:30;;;;;;;2.05;1.48;;;22.90;51.50;;;;;;5092762;28;20390;-66
2022/05/28 03:51:56;;;;;;;1.80;1.60;;;22.90;51.50;;;;;;5092307;28;20410;-65
2022/05/28 03:54:23;;;;;;;1.98;1.40;;;22.90;51.60;;;;;;5092628;28;20457;-66
2022/05/28 03:56:51;;;;;;;2.10;1.60;;;22.90;51.50;;;;;;5092535;28;20393;-66
2022/05/28 03:59:17;;;;;;;2.53;1.40;;;22.90;51.60;;;;;;5092666;28;20413;-66
2022/05/28 04:01:42;;;;;;;2.15;1.70;;;22.90;51.60;;;;;;5092595;28;20607;-65
2022/05/28 04:04:08;;;;;;;1.83;1.50;;;22.90;51.70;;;;;;5091923;28;20410;-65
2022/05/28 04:06:36;;;;;;;2.08;1.65;;;22.90;51.70;;;;;;5092550;28;20474;-65
2022/05/28 04:09:03;;;;;;;2.20;1.30;;;22.90;51.60;;;;;;5091068;28;20812;-66
2022/05/28 04:11:28;;;;;;;2.30;1.50;;;22.90;51.60;;;;;;5092358;28;20386;-65
2022/05/28 04:13:54;;;;;;;3.07;1.40;;;22.90;51.70;;;;;;5092342;28;20451;-65
2022/05/28 04:16:20;;;;;;;2.05;1.50;;;22.90;51.70;;;;;;5091290;28;20386;-65
2022/05/28 04:18:45;;;;;;;2.37;1.50;;;22.90;51.70;;;;;;5092269;28;20401;-65
2022/05/28 04:21:11;;;;;;;1.98;1.55;;;22.90;51.70;;;;;;5092228;28;20409;-66
2022/05/28 04:23:37;;;;;;;2.17;1.70;;;22.90;51.70;;;;;;5092074;28;20414;-66
2022/05/28 04:26:03;;;;;;;2.88;1.70;;;22.80;51.70;;;;;;5091890;28;20383;-65
2022/05/28 04:28:29;;;;;;;2.63;1.50;;;22.90;51.70;;;;;;5091850;28;20393;-65
2022/05/28 04:30:55;;;;;;;2.13;1.70;;;22.90;51.70;;;;;;5090800;28;20754;-66
2022/05/28 04:33:20;;;;;;;1.92;1.58;;;22.90;51.70;;;;;;5092047;28;20399;-65
2022/05/28 04:35:46;;;;;;;1.80;1.60;;;22.90;51.80;;;;;;5091956;28;20923;-65
2022/05/28 04:38:12;;;;;;;2.67;1.58;;;22.90;51.70;;;;;;5091447;28;20984;-65
2022/05/28 04:40:37;;;;;;;1.93;1.40;;;22.80;51.60;;;;;;5091896;28;20389;-66
2022/05/28 04:43:03;;;;;;;1.90;1.52;;;22.80;51.70;;;;;;5091724;28;20413;-66
2022/05/28 04:45:29;;;;;;;3.13;1.60;;;22.80;51.70;;;;;;5091856;28;20465;-66
2022/05/28 04:47:55;;;;;;;2.13;1.50;;;22.80;51.80;;;;;;5091704;28;20397;-66
2022/05/28 04:50:20;;;;;;;2.03;1.40;;;22.80;51.80;;;;;;5091296;28;20436;-66
2022/05/28 04:52:46;;;;;;;2.83;1.77;;;22.80;51.80;;;;;;5091564;28;20417;-66
2022/05/28 04:55:13;;;;;;;2.03;1.70;;;22.80;51.80;;;;;;5091744;28;20386;-66
2022/05/28 04:57:39;;;;;;;2.40;1.60;;;22.80;51.80;;;;;;5090595;28;20398;-66
2022/05/28 05:00:17;;;;;;;2.50;1.60;;;22.80;51.80;;;;;;5091471;28;20506;-65
2022/05/28 05:02:42;;;;;;;1.97;1.60;;;22.80;51.80;;;;;;5091595;28;20489;-65
2022/05/28 05:05:09;;;;;;;2.28;1.60;;;22.80;51.90;;;;;;5091488;28;20836;-66
2022/05/28 05:07:35;;;;;;;2.25;1.40;;;22.80;51.80;;;;;;5091583;28;20439;-66
2022/05/28 05:10:00;;;;;;;1.58;1.40;;;22.80;51.90;;;;;;5091303;28;20750;-65
2022/05/28 05:12:26;;;;;;;2.50;1.67;;;22.80;51.80;;;;;;5091363;28;21279;-65
2022/05/28 05:14:52;;;;;;;3.10;1.48;;;22.80;51.90;;;;;;5091516;28;20465;-65
2022/05/28 05:17:17;;;;;;;2.13;1.70;;;22.80;51.80;;;;;;5091503;28;20720;-65
2022/05/28 05:19:43;;;;;;;1.93;1.40;;;22.80;51.90;;;;;;5090369;28;20457;-65
2022/05/28 05:22:08;;;;;;;1.88;1.35;;;22.80;51.90;;;;;;5090799;28;20454;-65
2022/05/28 05:24:34;;;;;;;2.33;1.60;;;22.80;51.90;;;;;;5091429;28;20379;-65
2022/05/28 05:27:04;;;;;;;2.30;1.60;;;22.80;51.90;;;;;;5092057;28;20740;-65
2022/05/28 05:29:29;;;;;;;1.95;1.48;;;22.80;51.90;;;;;;5094137;28;20439;-66
2022/05/28 05:31:55;;;;;;;1.60;1.40;;;22.80;51.90;;;;;;5095442;28;20477;-65
2022/05/28 05:34:21;;;;;;;2.70;1.52;;;22.80;52.00;;;;;;5094903;28;20385;-65
2022/05/28 05:36:46;;;;;;;2.50;1.70;;;22.80;52.10;;;;;;5095355;28;20386;-66
2022/05/28 05:39:12;;;;;;;2.00;1.80;;;22.80;52.10;;;;;;5094062;28;21012;-65
2022/05/28 05:41:42;;;;;;;2.27;1.77;;;22.80;52.10;;;;;;5095309;28;20390;-66
2022/05/28 05:44:08;;;;;;;2.20;1.50;;;22.80;52.10;;;;;;5094885;28;20414;-65
2022/05/28 05:46:34;;;;;;;1.90;1.60;;;22.80;52.70;;;;;;5095228;28;20432;-66
2022/05/28 05:49:00;;;;;;;3.13;1.70;;;22.80;52.20;;;;;;5095121;28;20418;-64
2022/05/28 05:51:28;;;;;;;4.30;1.50;;;22.70;51.60;;;;;;5094678;28;20397;-64
2022/05/28 05:53:53;;;;;;;3.60;1.85;;;22.80;53.00;;;;;;5095439;28;20425;-65
2022/05/28 05:56:19;;;;;;;6.50;2.57;;;22.80;52.70;;;;;;5094854;28;20421;-65
2022/05/28 05:58:45;;;;;;;6.97;3.42;;;22.80;52.50;;;;;;5095818;28;20443;-64
2022/05/28 06:01:10;;;;;;;4.93;2.73;;;22.80;53.20;;;;;;5095300;28;20474;-65
2022/05/28 06:03:38;;;;;;;5.57;2.20;;;22.80;54.90;;;;;;5094145;28;20766;-65
2022/05/28 06:06:05;;;;;;;8.17;2.03;;;22.80;55.10;;;;;;5095508;28;20801;-65
2022/05/28 06:08:31;;;;;;;6.60;2.30;;;22.80;55.40;;;;;;5095190;28;20390;-65
2022/05/28 06:10:57;;;;;;;6.22;2.15;;;22.80;55.50;;;;;;5095059;28;20398;-65
2022/05/28 06:13:23;;;;;;;5.10;2.13;;;22.80;55.50;;;;;;5094783;28;20940;-65
2022/05/28 06:15:49;;;;;;;4.43;2.20;;;22.80;53.90;;;;;;5094405;28;20412;-65
2022/05/28 06:18:16;;;;;;;3.85;2.15;;;22.80;54.40;;;;;;5095027;28;20421;-65
2022/05/28 06:20:41;;;;;;;5.45;1.92;;;22.80;53.90;;;;;;5095893;28;20382;-65
2022/05/28 06:23:07;;;;;;;7.18;2.08;;;22.80;53.80;;;;;;5096257;28;21005;-65
2022/05/28 06:25:33;;;;;;;8.98;2.20;;;22.80;54.30;;;;;;5095283;28;20382;-65
2022/05/28 06:27:59;;;;;;;5.13;2.00;;;22.80;54.00;;;;;;5094256;28;20378;-65
2022/05/28 06:30:25;;;;;;;4.55;2.10;;;22.80;54.30;;;;;;5093749;28;20390;-65
2022/05/28 06:32:50;;;;;;;5.77;2.30;;;22.80;54.10;;;;;;5094174;28;20443;-65
2022/05/28 06:35:16;;;;;;;7.60;2.72;;;22.80;54.50;;;;;;5094566;28;20444;-65
2022/05/28 06:37:42;;;;;;;5.83;2.47;;;22.90;55.50;;;;;;5094419;28;20385;-65
2022/05/28 06:40:08;;;;;;;6.10;2.10;;;23.00;55.00;;;;;;5097591;28;20728;-65
2022/05/28 06:42:34;;;;;;;6.45;2.25;;;23.00;54.30;;;;;;5096355;28;20417;-65
2022/05/28 06:45:00;;;;;;;7.28;2.28;;;23.00;54.70;;;;;;5094499;28;20801;-65
2022/05/28 06:47:26;;;;;;;6.43;2.30;;;22.90;54.10;;;;;;5093907;28;20386;-65
2022/05/28 06:52:36;;;;;;;5.43;2.10;;;22.90;54.30;;;;;;5094026;28;20489;-65
2022/05/28 06:55:04;;;;;;;5.25;1.98;;;22.90;54.40;;;;;;5094076;28;20386;-65
2022/05/28 06:57:29;;;;;;;4.03;1.90;;;22.90;54.60;;;;;;5093729;28;20467;-65
2022/05/28 06:59:57;;;;;;;5.68;2.10;;;22.90;54.40;;;;;;5093652;28;20402;-65
2022/05/28 07:02:23;;;;;;;5.03;2.08;;;22.90;54.00;;;;;;5096926;28;20410;-67
2022/05/28 07:04:48;;;;;;;5.30;2.10;;;22.90;54.40;;;;;;5104929;28;20394;-66
2022/05/28 07:07:14;;;;;;;3.97;2.20;;;22.90;53.50;;;;;;5106755;28;20893;-66
2022/05/28 07:09:40;;;;;;;5.18;2.50;;;22.90;52.60;;;;;;5103396;28;20449;-64
2022/05/28 07:12:06;;;;;;;8.07;2.87;;;22.80;51.90;;;;;;5108302;28;20847;-67
2022/05/28 07:14:31;;;;;;;9.77;3.03;;;22.80;51.90;;;;;;5113383;28;20399;-66
2022/05/28 07:16:57;;;;;;;8.00;2.63;;;22.70;51.30;;;;;;5113677;28;20384;-67
2022/05/28 07:19:23;;;;;;;8.27;2.38;;;22.70;51.50;;;;;;5113822;28;20488;-66
2022/05/28 07:21:48;;;;;;;8.13;2.40;;;22.70;51.50;;;;;;5113696;28;20385;-66
2022/05/28 07:24:14;;;;;;;5.93;2.17;;;22.70;51.50;;;;;;5113171;28;20764;-65
2022/05/28 07:26:40;;;;;;;6.35;2.47;;;22.70;51.50;;;;;;5113745;28;20377;-67
2022/05/28 07:29:08;;;;;;;5.50;2.50;;;22.70;51.50;;;;;;5095145;28;20978;-66
2022/05/28 07:31:34;;;;;;;4.75;2.40;;;22.70;51.40;;;;;;5091753;28;20378;-67
2022/05/28 07:34:00;;;;;;;7.40;2.40;;;22.70;51.40;;;;;;5091796;28;20386;-67
2022/05/28 07:36:26;;;;;;;6.57;2.53;;;22.70;51.40;;;;;;5093779;28;20393;-67
2022/05/28 07:38:52;;;;;;;4.83;2.20;;;22.70;52.00;;;;;;5093743;28;20870;-66
2022/05/28 07:41:22;;;;;;;6.93;2.35;;;22.70;51.50;;;;;;5094350;28;20443;-67
2022/05/28 07:43:49;;;;;;;6.60;2.42;;;22.70;51.50;;;;;;5109197;28;20420;-67
2022/05/28 07:46:21;;;;;;;5.40;2.45;;;22.70;51.40;;;;;;5093501;28;20896;-66
2022/05/28 07:48:47;;;;;;;5.00;2.28;;;22.70;51.60;;;;;;5101333;28;20396;-67
2022/05/28 07:51:14;;;;;;;4.68;2.38;;;22.70;51.60;;;;;;5112432;28;20369;-67
2022/05/28 07:53:40;;;;;;;5.32;2.50;;;22.70;51.60;;;;;;5096183;28;20386;-66
2022/05/28 07:56:07;;;;;;;5.18;2.50;;;22.70;51.60;;;;;;5108311;28;20379;-67
2022/05/28 07:58:33;;;;;;;4.22;2.50;;;22.70;51.70;;;;;;5098953;28;20381;-66
2022/05/28 08:00:59;;;;;;;6.45;2.38;;;22.70;51.60;;;;;;5099980;28;20402;-66
2022/05/28 08:03:26;;;;;;;8.55;2.90;;;22.70;51.60;;;;;;5106608;28;20416;-66
2022/05/28 08:05:55;;;;;;;6.88;2.80;;;22.70;51.60;;;;;;5093879;28;20776;-66
2022/05/28 08:08:22;;;;;;;6.32;2.50;;;22.70;51.70;;;;;;5106390;28;20381;-66
2022/05/28 08:10:49;;;;;;;5.23;2.53;;;22.70;51.60;;;;;;5100945;28;20388;-66
2022/05/28 08:13:19;;;;;;;4.85;2.58;;;22.70;51.60;;;;;;5099231;28;20382;-66
2022/05/28 08:15:46;;;;;;;4.85;2.50;;;22.70;51.70;;;;;;5108238;28;20388;-66
2022/05/28 08:18:15;;;;;;;4.50;2.30;;;22.70;51.60;;;;;;5095677;28;20388;-66
2022/05/28 08:23:25;;;;;;;4.00;2.00;;;22.70;51.60;;;;;;5098949;28;20577;-66
2022/05/28 08:25:51;;;;;;;3.53;2.20;;;22.70;51.70;;;;;;5108335;28;20381;-66
2022/05/28 08:28:19;;;;;;;4.80;2.10;;;22.70;51.80;;;;;;5096353;28;20392;-67
2022/05/28 08:30:46;;;;;;;4.88;2.40;;;22.70;51.80;;;;;;5102944;28;20874;-68
2022/05/28 08:33:15;;;;;;;3.38;2.40;;;22.70;51.70;;;;;;5104452;28;20388;-67
2022/05/28 08:35:42;;;;;;;4.78;2.50;;;22.70;51.70;;;;;;5095036;28;21018;-67
2022/05/28 08:38:12;;;;;;;4.53;2.20;;;22.70;51.80;;;;;;5078540;28;20391;-67
2022/05/28 08:40:42;;;;;;;4.93;2.30;;;22.70;51.80;;;;;;5103949;28;20393;-67
2022/05/28 08:43:10;;;;;;;5.07;2.72;;;22.70;51.80;;;;;;5103345;28;20408;-67
2022/05/28 08:45:36;;;;;;;7.03;3.20;;;22.70;51.70;;;;;;5111906;28;20461;-67
2022/05/28 08:48:03;;;;;;;8.63;3.90;;;22.70;51.90;;;;;;5093402;28;20469;-67
2022/05/28 08:50:33;;;;;;;10.57;4.50;;;22.70;51.90;;;;;;5104736;28;20390;-67
2022/05/28 08:53:04;;;;;;;10.10;5.00;;;22.70;51.80;;;;;;5090847;28;20405;-67
2022/05/28 08:55:36;;;;;;;10.38;4.70;;;22.70;51.90;;;;;;5091327;28;20893;-66
2022/05/28 08:58:10;;;;;;;9.25;4.03;;;22.70;51.90;;;;;;5090969;28;20402;-66
2022/05/28 09:00:58;;;;;;;6.78;3.20;;;22.70;51.90;;;;;;5090887;28;20389;-64
2022/05/28 09:03:32;;;;;;;7.00;3.45;;;22.70;51.70;;;;;;5090474;28;20761;-64
2022/05/28 09:06:10;;;;;;;5.00;2.78;;;22.70;51.70;;;;;;5091195;28;20909;-64
2022/05/28 09:08:38;;;;;;;8.07;3.13;;;22.70;51.70;;;;;;5072633;28;20478;-64
2022/05/28 09:11:18;;;;;;;6.05;2.85;;;22.70;51.80;;;;;;5091091;28;20422;-63
2022/05/28 09:13:50;;;;;;;4.93;2.70;;;22.70;51.90;;;;;;5090976;28;20382;-67
2022/05/28 09:16:35;;;;;;;7.85;2.90;;;22.70;51.70;;;;;;5091319;28;20385;-67
2022/05/28 09:19:11;;;;;;;8.05;3.00;;;22.70;51.50;;;;;;5090642;28;20381;-68
2022/05/28 09:21:39;;;;;;;12.75;3.08;;;22.70;51.00;;;;;;5072859;28;20393;-67
2022/05/28 09:24:14;;;;;;;9.57;3.40;;;22.70;50.90;;;;;;5083779;28;20493;-67
2022/05/28 09:26:58;;;;;;;8.55;3.08;;;22.70;50.80;;;;;;5095083;28;20401;-67
2022/05/28 09:29:54;;;;;;;7.25;3.10;;;22.70;50.50;;;;;;5094330;28;20410;-65
2022/05/28 09:32:42;;;;;;;5.30;2.90;;;22.70;50.40;;;;;;5074434;28;20394;-63
2022/05/28 09:35:31;;;;;;;7.45;3.10;;;22.70;50.00;;;;;;5093405;28;20382;-65
2022/05/28 09:38:35;;;;;;;7.27;3.30;;;22.70;49.70;;;;;;5094039;28;20422;-66
2022/05/28 09:41:21;;;;;;;6.85;2.80;;;22.60;49.70;;;;;;5091385;28;20389;-66
2022/05/28 09:44:02;;;;;;;8.45;3.03;;;22.60;48.40;;;;;;5073031;28;20474;-65
2022/05/28 09:46:37;;;;;;;7.38;3.05;;;22.60;49.10;;;;;;5090623;28;20378;-66
2022/05/28 09:49:14;;;;;;;8.95;3.58;;;22.60;49.40;;;;;;5072525;28;20997;-65
2022/05/28 09:51:58;;;;;;;10.23;3.30;;;22.60;49.40;;;;;;5090704;28;20412;-65
2022/05/28 09:54:30;;;;;;;7.97;3.10;;;22.60;49.40;;;;;;5061728;28;20443;-65
2022/05/28 09:56:58;;;;;;;6.40;2.80;;;22.60;49.30;;;;;;5090322;28;20463;-66
2022/05/28 09:59:37;;;;;;;6.82;2.97;;;22.60;49.10;;;;;;5090703;28;20390;-66
2022/05/28 10:02:27;;;;;;;7.10;2.70;;;22.60;49.20;;;;;;5090580;28;20403;-66
2022/05/28 10:05:16;;;;;;;5.68;2.90;;;22.60;49.60;;;;;;5090347;28;20388;-65
2022/05/28 10:07:49;;;;;;;7.55;2.60;;;22.60;49.70;;;;;;5090608;28;20418;-65
2022/05/28 10:10:23;;;;;;;6.18;2.30;;;22.70;50.00;;;;;;5050017;28;20393;-65
2022/05/28 10:12:51;;;;;;;7.10;2.53;;;22.70;49.90;;;;;;5068923;28;20393;-65
2022/05/28 10:15:20;;;;;;;7.32;2.58;;;22.70;50.00;;;;;;5093060;28;20796;-65
2022/05/28 10:18:12;;;;;;;7.90;2.67;;;22.70;50.10;;;;;;5094077;28;20393;-65
2022/05/28 10:20:38;;;;;;;8.18;2.58;;;22.70;50.10;;;;;;5093402;28;20382;-65
2022/05/28 10:23:14;;;;;;;11.43;2.60;;;22.70;49.50;;;;;;5089824;28;20442;-65
2022/05/28 10:25:49;;;;;;;15.33;4.50;;;22.70;49.60;;;;;;5060702;28;20973;-66
2022/05/28 10:28:49;;;;;;;18.20;4.10;;;22.70;51.10;;;;;;5069843;28;20410;-65
2022/05/28 10:31:28;;;;;;;14.57;3.88;;;22.80;51.40;;;;;;5065423;28;20895;-65
2022/05/28 10:33:55;;;;;;;13.18;3.65;;;23.00;51.60;;;;;;5069653;28;20421;-66
2022/05/28 10:36:25;;;;;;;14.32;3.40;;;23.00;51.50;;;;;;5071778;28;20749;-66
2022/05/28 10:38:51;;;;;;;13.85;3.10;;;23.00;51.60;;;;;;5072252;28;20407;-65
2022/05/28 10:41:21;;;;;;;12.70;3.10;;;23.10;51.90;;;;;;5072066;28;20416;-65
2022/05/28 10:43:49;;;;;;;9.25;2.72;;;23.10;51.50;;;;;;5071630;28;20430;-66
2022/05/28 10:46:37;;;;;;;7.70;2.45;;;23.10;51.90;;;;;;5071794;28;20403;-64
2022/05/28 10:49:09;;;;;;;6.05;2.40;;;23.20;51.70;;;;;;5070532;28;20399;-65
2022/05/28 10:51:52;;;;;;;9.18;2.40;;;23.20;51.80;;;;;;5055730;28;20823;-66
2022/05/28 10:54:51;;;;;;;8.48;2.50;;;23.20;51.60;;;;;;5089803;28;20946;-65
2022/05/28 10:57:33;;;;;;;8.50;2.50;;;23.30;51.60;;;;;;5091531;28;20461;-67
2022/05/28 11:00:02;;;;;;;9.93;2.57;;;23.30;51.50;;;;;;5092188;28;20465;-67
2022/05/28 11:02:56;;;;;;;7.63;2.50;;;23.30;51.40;;;;;;5089621;28;20743;-67
2022/05/28 11:05:46;;;;;;;6.75;2.40;;;23.30;51.80;;;;;;5091807;28;20878;-67
2022/05/28 11:08:18;;;;;;;7.65;2.45;;;23.30;51.90;;;;;;5091924;28;20748;-66
2022/05/28 11:11:17;;;;;;;6.88;2.30;;;23.30;52.00;;;;;;5089549;28;20453;-66
2022/05/28 11:14:20;;;;;;;10.25;2.40;;;23.40;51.80;;;;;;5089678;28;20386;-65
2022/05/28 11:17:14;;;;;;;5.40;2.65;;;23.40;51.90;;;;;;5067402;28;20394;-65
2022/05/28 11:19:43;;;;;;;7.43;2.40;;;23.40;51.50;;;;;;5080267;28;20406;-67
2022/05/28 11:22:23;;;;;;;6.03;2.28;;;23.40;51.50;;;;;;5090077;28;20389;-66
2022/05/28 11:25:04;;;;;;;5.97;2.42;;;23.40;51.10;;;;;;5088520;28;20386;-66
2022/05/28 11:28:26;;;;;;;6.00;2.38;;;23.40;50.80;;;;;;5090702;28;20393;-66
2022/05/28 11:30:56;;;;;;;7.70;2.42;;;23.30;50.60;;;;;;5010748;28;20420;-66
2022/05/28 11:33:33;;;;;;;5.72;2.40;;;23.30;50.80;;;;;;5010884;28;20393;-65
2022/05/28 11:36:10;;;;;;;5.28;2.25;;;23.30;50.50;;;;;;5057259;28;20460;-66
2022/05/28 11:38:41;;;;;;;4.90;2.40;;;23.30;50.60;;;;;;5091913;28;20382;-66
2022/05/28 11:41:36;;;;;;;4.95;2.20;;;23.30;50.40;;;;;;5091594;28;20402;-66
2022/05/28 11:44:12;;;;;;;4.53;2.30;;;23.30;50.40;;;;;;5081318;28;20433;-66
2022/05/28 11:46:51;;;;;;;4.95;2.20;;;23.30;50.50;;;;;;5090488;28;21358;-66
2022/05/28 11:52:37;;;;;;;5.32;2.20;;;23.30;50.40;;;;;;5092301;28;20954;-66
2022/05/28 11:55:16;;;;;;;4.10;2.28;;;23.30;50.50;;;;;;5092442;28;20476;-66
2022/05/28 11:57:56;;;;;;;4.38;2.35;;;23.30;50.40;;;;;;5090824;28;20382;-65
2022/05/28 12:00:24;;;;;;;4.07;1.85;;;23.30;50.30;;;;;;5092093;28;20435;-65
2022/05/28 12:03:02;;;;;;;4.07;2.00;;;23.30;50.30;;;;;;5090707;28;20925;-66
2022/05/28 12:05:46;;;;;;;3.65;1.85;;;23.30;50.20;;;;;;5092325;28;21027;-66
2022/05/28 12:08:31;;;;;;;3.70;2.17;;;23.30;50.30;;;;;;5092479;28;20378;-66
2022/05/28 12:11:19;;;;;;;4.43;2.03;;;23.30;50.20;;;;;;5092269;28;20454;-65
2022/05/28 12:13:56;;;;;;;4.75;2.20;;;23.30;50.20;;;;;;5081504;28;20469;-66
2022/05/28 12:16:22;;;;;;;6.73;2.50;;;23.20;50.00;;;;;;5092089;28;20974;-66
2022/05/28 12:19:14;;;;;;;8.15;2.80;;;23.20;49.00;;;;;;5090675;28;20476;-66
2022/05/28 12:21:42;;;;;;;6.20;2.57;;;23.20;49.00;;;;;;5086460;28;20720;-66
2022/05/28 12:24:19;;;;;;;5.72;2.53;;;23.20;49.10;;;;;;5090793;28;20475;-67
2022/05/28 12:27:12;;;;;;;4.53;2.45;;;23.20;48.90;;;;;;5087873;28;20439;-66
2022/05/28 12:29:54;;;;;;;7.25;2.30;;;23.20;49.10;;;;;;5089318;28;20413;-66
2022/05/28 12:32:23;;;;;;;5.07;2.30;;;23.20;49.30;;;;;;5090037;28;20402;-64
2022/05/28 12:35:07;;;;;;;4.67;2.20;;;23.20;49.40;;;;;;5091600;28;20413;-66
2022/05/28 12:37:35;;;;;;;6.35;2.50;;;23.20;49.40;;;;;;5089883;28;20422;-65
2022/05/28 12:40:22;;;;;;;4.90;2.40;;;23.20;49.50;;;;;;5091714;28;20435;-66
2022/05/28 12:42:48;;;;;;;6.63;2.38;;;23.20;49.50;;;;;;5091255;28;20394;-66
2022/05/28 12:45:36;;;;;;;3.55;2.10;;;23.10;49.40;;;;;;5090973;28;20398;-66
2022/05/28 12:48:30;;;;;;;4.53;2.13;;;23.10;49.40;;;;;;5090327;28;20401;-66
2022/05/28 12:51:22;;;;;;;4.40;2.17;;;23.20;49.40;;;;;;5091677;28;20770;-66
2022/05/28 12:53:57;;;;;;;4.20;2.20;;;23.10;49.40;;;;;;5091566;28;20394;-66
2022/05/28 12:56:35;;;;;;;4.07;2.10;;;23.10;49.30;;;;;;5091195;28;20469;-65
2022/05/28 12:59:29;;;;;;;3.95;2.00;;;23.10;49.40;;;;;;5091334;28;20443;-65
2022/05/28 13:02:03;;;;;;;3.03;2.10;;;23.10;49.30;;;;;;5090681;28;20398;-66
2022/05/28 13:04:40;;;;;;;4.18;2.00;;;23.10;49.30;;;;;;5091337;28;20405;-65
2022/05/28 13:07:22;;;;;;;3.50;2.03;;;23.10;49.30;;;;;;5091547;28;20862;-65
2022/05/28 13:09:50;;;;;;;3.43;2.00;;;23.10;49.30;;;;;;5091288;28;20374;-66
2022/05/28 13:12:25;;;;;;;3.85;1.90;;;23.10;49.30;;;;;;5091432;28;20385;-66
2022/05/28 13:15:07;;;;;;;3.55;2.00;;;23.10;49.20;;;;;;5090499;28;20460;-66
2022/05/28 13:17:33;;;;;;;3.43;2.00;;;23.10;49.30;;;;;;5091406;28;20505;-66